createdAt,value
2019-02-02T00:12:44.778Z,93.95
2019-02-02T00:18:08.088Z,94.21
2019-02-02T00:23:12.469Z,94.12
2019-02-02T00:34:25.070Z,94.10
2019-02-02T00:39:29.361Z,94.03
2019-02-02T00:44:45.191Z,94.29
2019-02-02T00:54:59.273Z,94.47
2019-02-02T01:00:22.591Z,94.31
2019-02-02T01:05:27.085Z,94.28
2019-02-02T01:11:11.608Z,94.36
2019-02-02T01:16:15.910Z,94.49
2019-02-02T01:21:20.142Z,94.41
2019-02-02T01:26:43.445Z,94.43
2019-02-02T01:32:06.995Z,94.42
2019-02-02T01:37:30.303Z,94.34
2019-02-02T01:42:34.584Z,94.54
2019-02-02T01:47:58.758Z,94.77
2019-02-02T01:53:03.012Z,94.44
2019-02-02T02:08:46.412Z,94.93
2019-02-02T02:13:50.646Z,94.90
2019-02-02T02:29:35.170Z,94.32
2019-02-02T02:34:39.435Z,94.46
2019-02-02T02:39:43.678Z,94.30
2019-02-02T02:45:07.329Z,94.32
2019-02-02T03:00:54.768Z,94.25
2019-02-02T03:05:59.009Z,94.29
2019-02-02T03:11:42.593Z,94.29
2019-02-02T03:27:06.419Z,94.80
2019-02-02T03:32:10.642Z,94.80
2019-02-02T03:37:33.944Z,94.85
2019-02-02T03:43:17.528Z,94.77
2019-02-02T03:48:21.771Z,94.94
2019-02-02T03:53:41.018Z,95.08
2019-02-02T03:58:44.085Z,95.29
2019-02-02T04:04:27.774Z,95.14
2019-02-02T04:09:51.074Z,95.17
2019-02-02T04:14:55.305Z,95.32
2019-02-02T04:30:58.674Z,95.78
2019-02-02T04:36:02.999Z,96.05
2019-02-02T04:51:46.558Z,96.25
2019-02-02T04:56:50.838Z,96.11
2019-02-02T05:01:55.175Z,95.78
2019-02-02T05:06:59.404Z,95.88
2019-02-02T05:17:32.589Z,95.91
2019-02-02T05:22:36.815Z,96.00
2019-02-02T05:27:41.084Z,96.05
2019-02-02T05:32:45.431Z,96.15
2019-02-02T05:53:18.598Z,96.65
2019-02-02T06:08:42.566Z,96.38
2019-02-02T06:13:46.803Z,96.37
2019-02-02T06:19:10.111Z,96.20
2019-02-02T06:29:24.521Z,96.91
2019-02-02T06:34:47.818Z,96.84
2019-02-02T06:39:52.053Z,96.86
2019-02-02T06:44:56.347Z,96.92
2019-02-02T07:00:41.019Z,96.36
2019-02-02T07:05:45.321Z,96.24
2019-02-02T07:15:59.329Z,96.32
2019-02-02T07:26:32.200Z,96.24
2019-02-02T07:31:36.429Z,96.22
2019-02-02T07:47:00.245Z,96.40
2019-02-02T07:52:23.566Z,96.56
2019-02-02T08:02:38.121Z,96.80
2019-02-02T08:07:42.357Z,96.71
2019-02-02T08:33:45.412Z,96.02
2019-02-02T08:38:50.793Z,95.93
2019-02-02T08:43:55.093Z,95.80
2019-02-02T08:48:59.345Z,95.41
2019-02-02T08:59:15.394Z,95.43
2019-02-02T09:04:31.773Z,95.29
2019-02-02T09:09:35.989Z,95.48
2019-02-02T09:14:40.222Z,95.65
2019-02-02T09:25:53.368Z,95.23
2019-02-02T09:30:57.638Z,94.99
2019-02-02T09:36:01.872Z,95.20
2019-02-02T09:41:25.182Z,95.04
2019-02-02T09:46:29.424Z,95.24
2019-02-02T09:51:52.723Z,95.10
2019-02-02T10:02:27.161Z,94.86
2019-02-02T10:07:45.580Z,94.53
2019-02-02T10:12:49.859Z,94.23
2019-02-02T10:17:54.084Z,94.46
2019-02-02T10:23:17.467Z,94.28
2019-02-02T10:28:21.711Z,94.24
2019-02-02T10:33:45.006Z,94.04
2019-02-02T10:49:28.816Z,93.95
2019-02-02T11:04:53.558Z,94.42
2019-02-02T11:10:10.333Z,94.25
2019-02-02T11:15:54.723Z,94.37
2019-02-02T11:20:58.987Z,94.15
2019-02-02T11:31:32.158Z,94.24
2019-02-02T11:46:56.982Z,94.60
2019-02-02T11:52:01.304Z,94.43
2019-02-02T11:57:05.717Z,94.51
2019-02-02T12:02:14.629Z,94.19
2019-02-02T12:12:37.374Z,94.31
2019-02-02T12:22:51.407Z,94.29
2019-02-02T12:33:25.997Z,93.92
2019-02-02T12:38:49.775Z,93.98
2019-02-02T12:49:04.103Z,94.22
2019-02-02T12:54:08.334Z,94.53
2019-02-02T13:04:21.901Z,93.90
2019-02-02T13:14:47.282Z,92.94
2019-02-02T13:25:01.135Z,92.58
2019-02-02T13:30:46.134Z,93.08
2019-02-02T13:36:30.171Z,92.99
2019-02-02T13:41:34.411Z,92.86
2019-02-02T13:46:58.023Z,91.95
2019-02-02T13:52:02.252Z,91.84
2019-02-02T14:02:35.899Z,92.50
2019-02-02T14:07:40.138Z,92.47
2019-02-02T14:12:44.709Z,92.34
2019-02-02T14:18:01.066Z,92.66
2019-02-02T14:23:44.805Z,92.50
2019-02-02T14:28:49.384Z,92.79
2019-02-02T14:39:22.724Z,92.71
2019-02-02T14:56:05.551Z,92.65
2019-02-02T15:01:28.847Z,92.44
2019-02-02T15:06:33.123Z,92.29
2019-02-02T15:17:06.489Z,92.11
2019-02-02T15:22:22.848Z,92.06
2019-02-02T15:27:27.146Z,92.39
2019-02-02T15:32:31.441Z,92.44
2019-02-02T15:37:36.110Z,92.65
2019-02-02T15:42:59.490Z,92.68
2019-02-02T15:48:23.144Z,92.73
2019-02-02T15:53:27.377Z,92.76
2019-02-02T15:58:52.345Z,92.71
2019-02-02T16:04:36.450Z,93.20
2019-02-02T16:09:40.718Z,93.43
2019-02-02T16:15:04.450Z,93.66
2019-02-02T16:20:49.934Z,93.64
2019-02-02T16:25:54.253Z,93.83
2019-02-02T16:31:17.585Z,93.45
2019-02-02T16:36:40.891Z,93.54
2019-02-02T16:42:04.285Z,93.43
2019-02-02T16:47:27.630Z,93.43
2019-02-02T16:58:41.457Z,93.58
2019-02-02T17:14:44.313Z,94.32
2019-02-02T17:20:07.672Z,94.85
2019-02-02T17:25:52.156Z,95.16
2019-02-02T17:31:15.453Z,95.65
2019-02-02T17:42:07.839Z,96.03
2019-02-02T17:47:12.067Z,96.10
2019-02-02T18:03:07.037Z,96.07
2019-02-02T18:08:11.299Z,96.05
2019-02-02T18:13:15.539Z,96.02
2019-02-02T18:24:08.344Z,96.06
2019-02-02T18:29:12.581Z,96.06
2019-02-02T18:34:16.863Z,96.04
2019-02-02T18:39:21.105Z,96.19
2019-02-02T18:44:44.410Z,96.21
2019-02-02T18:56:24.028Z,96.24
2019-02-02T19:06:59.350Z,96.30
2019-02-02T19:12:03.923Z,96.35
2019-02-02T19:17:10.538Z,96.08
2019-02-02T19:22:14.787Z,96.09
2019-02-02T19:32:47.411Z,96.34
2019-02-02T19:38:10.895Z,96.27
2019-02-02T19:48:25.152Z,96.17
2019-02-02T19:53:31.833Z,96.29
2019-02-02T19:58:35.458Z,96.24
2019-02-02T20:03:39.745Z,96.47
2019-02-02T20:08:43.983Z,96.54
2019-02-02T20:18:58.367Z,96.61
2019-02-02T20:29:12.470Z,97.04
2019-02-02T20:34:16.706Z,97.17
2019-02-02T20:44:31.027Z,96.97
2019-02-02T20:49:54.423Z,96.57
2019-02-02T21:00:50.346Z,96.58
2019-02-02T21:06:14.189Z,96.53
2019-02-02T21:16:47.896Z,97.06
2019-02-02T21:27:02.097Z,97.23
2019-02-02T21:32:06.706Z,97.15
2019-02-02T21:37:11.250Z,96.98
2019-02-02T21:47:44.916Z,96.85
2019-02-02T21:53:28.581Z,96.89
2019-02-02T21:58:52.150Z,96.98
2019-02-02T22:03:56.818Z,96.84
2019-02-02T22:09:01.122Z,96.80
2019-02-02T22:14:44.784Z,96.71
2019-02-02T22:25:18.739Z,96.57
2019-02-02T22:31:03.437Z,96.66
2019-02-02T22:36:07.715Z,96.74
2019-02-02T22:46:40.996Z,96.83
2019-02-02T22:51:45.295Z,96.84
2019-02-02T22:57:08.597Z,96.94
2019-02-02T23:08:21.291Z,97.00
2019-02-02T23:14:03.767Z,97.04
2019-02-02T23:19:09.730Z,96.97
2019-02-02T23:24:33.039Z,97.03
2019-02-02T23:29:56.385Z,97.05
2019-02-02T23:45:38.918Z,96.74
2019-02-02T23:50:43.163Z,96.47
2019-02-02T23:55:47.414Z,96.15
